createdAt,value
2018-05-10T00:01:32.032Z,20.80
2018-05-10T00:03:58.706Z,20.80
2018-05-10T00:06:25.383Z,20.80
2018-05-10T00:08:52.804Z,20.80
2018-05-10T00:11:19.445Z,20.80
2018-05-10T00:13:46.465Z,20.80
2018-05-10T00:16:13.493Z,20.80
2018-05-10T00:18:40.107Z,20.80
2018-05-10T00:21:07.180Z,20.80
2018-05-10T00:23:34.208Z,20.80
2018-05-10T00:26:00.864Z,20.80
2018-05-10T00:28:27.942Z,20.80
2018-05-10T00:30:55.367Z,20.80
2018-05-10T00:33:22.413Z,20.80
2018-05-10T00:35:49.052Z,20.80
2018-05-10T00:38:16.100Z,20.80
2018-05-10T00:40:42.766Z,20.80
2018-05-10T00:43:10.204Z,20.80
2018-05-10T00:45:37.628Z,20.80
2018-05-10T00:48:04.272Z,20.80
2018-05-10T00:50:31.720Z,20.80
2018-05-10T00:52:59.188Z,20.80
2018-05-10T00:55:25.816Z,20.80
2018-05-10T00:57:52.510Z,20.80
2018-05-10T01:00:19.284Z,20.80
2018-05-10T01:02:45.946Z,20.80
2018-05-10T01:15:36.247Z,20.70
2018-05-10T01:18:03.279Z,20.70
2018-05-10T01:20:29.925Z,20.70
2018-05-10T01:22:56.976Z,20.70
2018-05-10T01:25:23.604Z,20.70
2018-05-10T01:27:51.008Z,20.70
2018-05-10T01:30:17.636Z,20.70
2018-05-10T01:32:44.258Z,20.70
2018-05-10T01:35:10.913Z,20.70
2018-05-10T01:37:43.887Z,20.70
2018-05-10T01:40:10.944Z,20.70
2018-05-10T01:42:38.431Z,20.70
2018-05-10T01:45:05.857Z,20.70
2018-05-10T01:47:32.885Z,20.70
2018-05-10T01:49:59.546Z,20.70
2018-05-10T01:52:26.565Z,20.70
2018-05-10T01:54:53.634Z,20.70
2018-05-10T01:57:20.261Z,20.70
2018-05-10T01:59:49.981Z,20.70
2018-05-10T02:02:17.496Z,20.70
2018-05-10T02:04:44.134Z,20.70
2018-05-10T02:07:11.165Z,20.70
2018-05-10T02:09:38.985Z,20.70
2018-05-10T02:12:05.675Z,20.70
2018-05-10T02:14:32.692Z,20.70
2018-05-10T02:16:59.336Z,20.70
2018-05-10T02:19:26.002Z,20.70
2018-05-10T02:21:53.020Z,20.70
2018-05-10T02:24:20.043Z,20.70
2018-05-10T02:26:46.676Z,20.70
2018-05-10T02:29:13.288Z,20.70
2018-05-10T02:31:41.223Z,20.70
2018-05-10T02:34:08.005Z,20.70
2018-05-10T02:36:34.649Z,20.70
2018-05-10T02:39:02.149Z,20.70
2018-05-10T02:41:28.848Z,20.70
2018-05-10T02:43:55.577Z,20.60
2018-05-10T02:46:22.221Z,20.60
2018-05-10T02:48:49.256Z,20.60
2018-05-10T02:51:16.318Z,20.60
2018-05-10T02:53:43.347Z,20.60
2018-05-10T02:56:09.995Z,20.60
2018-05-10T02:58:36.641Z,20.60
2018-05-10T03:01:03.279Z,20.60
2018-05-10T03:03:30.321Z,20.60
2018-05-10T03:05:57.758Z,20.60
2018-05-10T03:08:24.416Z,20.60
2018-05-10T03:10:55.950Z,20.60
2018-05-10T03:13:22.640Z,20.60
2018-05-10T03:15:50.462Z,20.60
2018-05-10T03:18:17.542Z,20.60
2018-05-10T03:20:49.868Z,20.60
2018-05-10T03:23:16.528Z,20.60
2018-05-10T03:25:43.588Z,20.60
2018-05-10T03:28:11.026Z,20.60
2018-05-10T03:30:37.697Z,20.60
2018-05-10T03:33:04.335Z,20.60
2018-05-10T03:35:31.733Z,20.60
2018-05-10T03:37:58.866Z,20.60
2018-05-10T03:40:26.035Z,20.60
2018-05-10T03:42:52.700Z,20.60
2018-05-10T03:45:19.333Z,20.60
2018-05-10T03:47:46.357Z,20.60
2018-05-10T03:50:13.459Z,20.50
2018-05-10T03:52:40.472Z,20.50
2018-05-10T03:55:07.122Z,20.50
2018-05-10T03:57:34.546Z,20.50
2018-05-10T04:00:01.236Z,20.50
2018-05-10T04:02:28.277Z,20.50
2018-05-10T04:04:54.914Z,20.50
2018-05-10T04:07:22.319Z,20.50
2018-05-10T04:09:49.383Z,20.50
2018-05-10T04:12:17.239Z,20.50
2018-05-10T04:14:43.884Z,20.50
2018-05-10T04:17:10.513Z,20.50
2018-05-10T04:19:37.576Z,20.50
2018-05-10T04:22:04.196Z,20.50
2018-05-10T04:24:31.305Z,20.50
2018-05-10T04:26:58.334Z,20.50
2018-05-10T04:29:24.973Z,20.50
2018-05-10T04:31:51.648Z,20.50
2018-05-10T04:34:18.697Z,20.50
2018-05-10T04:36:45.739Z,20.50
2018-05-10T04:39:12.371Z,20.50
2018-05-10T04:41:39.834Z,20.40
2018-05-10T04:44:06.459Z,20.40
2018-05-10T04:46:33.488Z,20.40
2018-05-10T04:49:00.524Z,20.40
2018-05-10T04:51:27.195Z,20.40
2018-05-10T04:53:53.818Z,20.40
2018-05-10T04:56:20.859Z,20.40
2018-05-10T04:58:47.488Z,20.40
2018-05-10T05:01:14.137Z,20.40
2018-05-10T05:03:40.765Z,20.40
2018-05-10T05:06:07.820Z,20.40
2018-05-10T05:08:34.454Z,20.40
2018-05-10T05:11:01.523Z,20.40
2018-05-10T05:13:28.199Z,20.40
2018-05-10T05:15:55.347Z,20.40
2018-05-10T05:18:21.983Z,20.40
2018-05-10T05:20:49.021Z,20.40
2018-05-10T05:23:15.642Z,20.40
2018-05-10T05:25:42.291Z,20.40
2018-05-10T05:28:09.400Z,20.40
2018-05-10T05:30:36.074Z,20.40
2018-05-10T05:33:03.108Z,20.40
2018-05-10T05:35:29.754Z,20.40
2018-05-10T05:37:57.156Z,20.40
2018-05-10T05:40:24.169Z,20.30
2018-05-10T05:42:50.811Z,20.30
2018-05-10T05:45:17.427Z,20.40
2018-05-10T05:47:44.072Z,20.30
2018-05-10T05:50:10.752Z,20.30
2018-05-10T05:52:37.796Z,20.30
2018-05-10T05:55:04.446Z,20.30
2018-05-10T05:57:32.058Z,20.30
2018-05-10T05:59:58.725Z,20.30
2018-05-10T06:02:25.764Z,20.30
2018-05-10T06:04:52.791Z,20.30
2018-05-10T06:07:19.833Z,20.30
2018-05-10T06:09:46.453Z,20.30
2018-05-10T06:12:13.572Z,20.30
2018-05-10T06:14:40.192Z,20.30
2018-05-10T06:17:06.819Z,20.30
2018-05-10T06:19:34.248Z,20.30
2018-05-10T06:22:00.918Z,20.30
2018-05-10T06:24:28.343Z,20.30
2018-05-10T06:26:54.964Z,20.30
2018-05-10T06:29:26.126Z,20.30
2018-05-10T06:31:53.552Z,20.30
2018-05-10T06:34:20.625Z,20.30
2018-05-10T06:36:47.694Z,20.30
2018-05-10T06:39:20.079Z,20.30
2018-05-10T06:41:47.113Z,20.30
2018-05-10T06:44:13.751Z,20.30
2018-05-10T06:46:41.196Z,20.30
2018-05-10T06:49:07.845Z,20.20
2018-05-10T06:51:35.252Z,20.30
2018-05-10T06:54:01.913Z,20.20
2018-05-10T06:56:28.585Z,20.20
2018-05-10T06:58:55.226Z,20.20
2018-05-10T07:01:22.248Z,20.30
2018-05-10T07:03:49.756Z,20.20
2018-05-10T07:06:17.952Z,20.20
2018-05-10T07:08:45.013Z,20.20
2018-05-10T07:11:12.037Z,20.20
2018-05-10T07:13:38.704Z,20.20
2018-05-10T07:16:06.130Z,20.20
2018-05-10T07:18:33.628Z,20.20
2018-05-10T07:21:00.688Z,20.20
2018-05-10T07:23:27.312Z,20.20
2018-05-10T07:25:54.360Z,20.20
2018-05-10T07:28:21.030Z,20.20
2018-05-10T07:30:47.667Z,20.20
2018-05-10T07:33:20.175Z,20.20
2018-05-10T07:35:47.727Z,20.20
2018-05-10T07:38:14.804Z,20.20
2018-05-10T07:40:41.533Z,20.20
2018-05-10T07:43:09.019Z,20.20
2018-05-10T07:45:36.106Z,20.20
2018-05-10T07:48:02.724Z,20.20
2018-05-10T07:50:29.366Z,20.20
2018-05-10T07:52:55.994Z,20.20
2018-05-10T07:55:22.641Z,20.20
2018-05-10T07:57:49.500Z,20.20
2018-05-10T08:00:20.229Z,20.20
2018-05-10T08:02:50.049Z,20.20
2018-05-10T08:05:16.687Z,20.20
2018-05-10T08:07:44.204Z,20.20
2018-05-10T08:10:10.968Z,20.20
2018-05-10T08:12:37.901Z,20.20
2018-05-10T08:15:04.523Z,20.20
2018-05-10T08:17:31.160Z,20.20
2018-05-10T08:19:57.831Z,20.20
2018-05-10T08:22:24.474Z,20.20
2018-05-10T08:24:51.221Z,20.20
2018-05-10T08:27:18.692Z,20.20
2018-05-10T08:29:45.305Z,20.20
2018-05-10T08:32:14.221Z,20.20
2018-05-10T08:34:40.840Z,20.20
2018-05-10T08:37:08.309Z,20.20
2018-05-10T08:39:35.351Z,20.20
2018-05-10T08:42:02.416Z,20.20
2018-05-10T08:44:29.843Z,20.20
2018-05-10T08:46:56.891Z,20.20
2018-05-10T08:49:23.952Z,20.20
2018-05-10T08:51:51.049Z,20.20
2018-05-10T08:54:17.632Z,20.20
2018-05-10T08:56:50.207Z,20.20
2018-05-10T08:59:16.851Z,20.20
2018-05-10T09:01:43.470Z,20.20
2018-05-10T09:04:10.124Z,20.20
2018-05-10T09:06:36.750Z,20.20
2018-05-10T09:09:04.213Z,20.20
2018-05-10T09:11:31.242Z,20.20
2018-05-10T09:13:58.335Z,20.20
2018-05-10T09:16:24.973Z,20.20
2018-05-10T09:18:51.606Z,20.20
2018-05-10T09:21:18.628Z,20.20
2018-05-10T09:23:45.669Z,20.20
2018-05-10T09:26:12.699Z,20.20
2018-05-10T09:28:44.071Z,20.20
2018-05-10T09:31:11.792Z,20.20
2018-05-10T09:33:38.843Z,20.20
2018-05-10T09:36:05.476Z,20.20
2018-05-10T09:38:32.658Z,20.20
2018-05-10T09:40:59.304Z,20.20
2018-05-10T09:43:27.151Z,20.20
2018-05-10T09:45:53.811Z,20.20
2018-05-10T09:48:20.833Z,20.20
2018-05-10T09:50:47.945Z,20.20
2018-05-10T09:53:15.740Z,20.20
2018-05-10T09:55:42.807Z,20.20
2018-05-10T09:58:09.428Z,20.20
2018-05-10T10:00:36.093Z,20.20
2018-05-10T10:03:03.524Z,20.20
2018-05-10T10:05:30.585Z,20.20
2018-05-10T10:07:57.201Z,20.20
2018-05-10T10:10:24.322Z,20.20
2018-05-10T10:12:51.713Z,20.20
2018-05-10T10:15:18.360Z,20.20
2018-05-10T10:17:45.856Z,20.20
2018-05-10T10:20:12.899Z,20.20
2018-05-10T10:22:39.527Z,20.20
2018-05-10T10:25:06.564Z,20.20
2018-05-10T10:27:34.006Z,20.20
2018-05-10T10:30:02.305Z,20.20
2018-05-10T10:32:29.427Z,20.20
2018-05-10T10:34:56.037Z,20.20
2018-05-10T10:37:22.854Z,20.20
2018-05-10T10:39:49.888Z,20.20
2018-05-10T10:42:16.968Z,20.20
2018-05-10T10:44:43.587Z,20.20
2018-05-10T10:47:10.232Z,20.20
2018-05-10T10:49:36.879Z,20.20
2018-05-10T10:52:04.302Z,20.20
2018-05-10T10:54:32.149Z,20.20
2018-05-10T10:56:58.835Z,20.20
2018-05-10T10:59:25.852Z,20.20
2018-05-10T11:01:52.563Z,20.20
2018-05-10T11:04:20.296Z,20.20
2018-05-10T11:06:47.825Z,20.20
2018-05-10T11:09:15.262Z,20.20
2018-05-10T11:11:42.728Z,20.20
2018-05-10T11:14:09.357Z,20.20
2018-05-10T11:16:36.414Z,20.20
2018-05-10T12:41:19.779Z,20.10
2018-05-10T12:43:46.796Z,20.10
2018-05-10T12:46:13.448Z,20.10
2018-05-10T12:48:40.149Z,20.10
2018-05-10T12:51:06.752Z,20.10
2018-05-10T12:53:33.380Z,20.10
2018-05-10T12:56:00.525Z,20.10
2018-05-10T12:58:27.184Z,20.10
2018-05-10T13:00:53.845Z,20.10
2018-05-10T13:03:20.487Z,20.10
2018-05-10T13:05:47.527Z,20.10
2018-05-10T13:08:14.152Z,20.10
2018-05-10T13:10:40.809Z,20.10
2018-05-10T13:13:07.437Z,20.10
2018-05-10T13:15:34.105Z,20.10
2018-05-10T13:18:01.147Z,20.10
2018-05-10T13:20:28.174Z,20.10
2018-05-10T13:22:55.614Z,20.10
2018-05-10T13:25:26.328Z,20.10
2018-05-10T13:27:53.393Z,20.10
2018-05-10T13:30:20.021Z,20.10
2018-05-10T13:32:46.668Z,20.10
2018-05-10T13:35:13.688Z,20.10
2018-05-10T13:37:40.828Z,20.10
2018-05-10T13:40:07.457Z,20.10
2018-05-10T13:42:34.499Z,20.10
2018-05-10T13:45:01.147Z,20.10
2018-05-10T13:47:27.877Z,20.10
2018-05-10T13:49:54.838Z,20.10
2018-05-10T13:52:21.880Z,20.10
2018-05-10T13:54:48.510Z,20.10
2018-05-10T13:57:15.196Z,20.10
2018-05-10T13:59:41.927Z,20.10
2018-05-10T14:02:08.539Z,20.10
2018-05-10T14:04:35.634Z,20.10
2018-05-10T14:07:02.296Z,20.10
2018-05-10T14:09:28.996Z,20.10
2018-05-10T14:11:55.707Z,20.10
2018-05-10T14:14:26.262Z,20.10
2018-05-10T14:16:52.927Z,20.10
2018-05-10T14:19:19.563Z,20.10
2018-05-10T14:21:46.646Z,20.10
2018-05-10T14:24:14.440Z,20.10
2018-05-10T14:26:41.068Z,20.00
2018-05-10T14:29:08.524Z,20.10
2018-05-10T14:31:35.149Z,20.10
2018-05-10T14:34:01.806Z,20.00
2018-05-10T14:36:28.432Z,20.10
2018-05-10T14:38:55.505Z,20.00
2018-05-10T14:41:22.164Z,20.00
2018-05-10T14:43:49.977Z,20.00
2018-05-10T14:46:16.663Z,20.00
2018-05-10T14:48:44.479Z,20.00
2018-05-10T14:51:11.135Z,20.00
2018-05-10T14:53:38.619Z,20.00
2018-05-10T14:56:05.264Z,20.00
2018-05-10T14:58:31.880Z,20.00
2018-05-10T15:00:59.321Z,20.00
2018-05-10T15:03:26.811Z,20.00
2018-05-10T15:05:53.493Z,20.00
2018-05-10T15:08:20.114Z,20.00
2018-05-10T15:10:46.789Z,20.00
2018-05-10T15:13:13.502Z,20.00
2018-05-10T15:15:40.986Z,20.00
2018-05-10T15:18:07.612Z,20.00
2018-05-10T15:20:34.661Z,20.00
2018-05-10T15:23:01.733Z,20.00
2018-05-10T15:25:29.216Z,20.00
2018-05-10T15:27:56.456Z,20.00
2018-05-10T15:30:24.297Z,20.00
2018-05-10T15:32:51.740Z,20.00
2018-05-10T15:35:18.363Z,20.00
2018-05-10T15:37:45.479Z,20.00
2018-05-10T15:40:12.874Z,20.00
2018-05-10T15:42:39.518Z,20.00
2018-05-10T15:45:06.175Z,20.00
2018-05-10T15:47:33.216Z,20.00
2018-05-10T15:50:00.240Z,20.00
2018-05-10T15:52:28.389Z,20.00
2018-05-10T15:54:56.384Z,20.00
2018-05-10T15:57:24.245Z,20.00
2018-05-10T15:59:51.747Z,20.00
2018-05-10T16:02:18.790Z,20.00
2018-05-10T16:04:45.805Z,20.00
2018-05-10T16:07:12.467Z,20.00
2018-05-10T16:09:39.124Z,20.00
2018-05-10T16:12:06.160Z,20.00
2018-05-10T16:14:32.811Z,20.00
2018-05-10T16:16:59.432Z,20.00
2018-05-10T16:19:26.497Z,20.00
2018-05-10T16:21:53.514Z,20.00
2018-05-10T16:24:20.952Z,20.00
2018-05-10T16:26:47.572Z,20.00
2018-05-10T16:29:14.632Z,20.00
2018-05-10T16:31:42.134Z,20.00
2018-05-10T16:34:08.774Z,20.00
2018-05-10T16:36:36.169Z,20.10
2018-05-10T16:39:03.657Z,20.00
2018-05-10T16:41:31.091Z,20.10
2018-05-10T16:43:58.549Z,20.10
2018-05-10T16:46:25.204Z,20.10
2018-05-10T16:48:52.245Z,20.10
2018-05-10T16:51:18.896Z,20.10
2018-05-10T16:53:45.577Z,20.10
2018-05-10T16:56:14.422Z,20.10
2018-05-10T16:58:41.069Z,20.10
2018-05-10T17:01:07.713Z,20.10
2018-05-10T17:03:34.336Z,20.10
2018-05-10T17:06:01.023Z,20.10
2018-05-10T17:08:27.645Z,20.10
2018-05-10T17:10:54.689Z,20.00
2018-05-10T17:13:21.713Z,20.00
2018-05-10T17:15:48.752Z,20.00
2018-05-10T17:18:15.825Z,20.10
2018-05-10T17:20:42.860Z,20.00
2018-05-10T17:23:09.489Z,20.00
2018-05-10T17:25:37.570Z,20.00
2018-05-10T17:28:04.204Z,20.00
2018-05-10T17:30:31.252Z,20.00
2018-05-10T17:32:58.324Z,20.10
2018-05-10T17:35:25.385Z,20.00
2018-05-10T17:37:56.439Z,20.00
2018-05-10T17:40:23.944Z,20.00
2018-05-10T17:42:50.600Z,20.00
2018-05-10T17:45:17.275Z,20.00
2018-05-10T17:47:44.688Z,20.00
2018-05-10T17:50:12.075Z,20.00
2018-05-10T17:52:39.538Z,20.00
2018-05-10T17:55:06.158Z,20.00
2018-05-10T17:57:32.809Z,20.00
2018-05-10T17:59:59.838Z,20.00
2018-05-10T18:02:26.904Z,20.00
2018-05-10T18:04:54.765Z,20.00
2018-05-10T18:14:40.534Z,19.90
2018-05-10T18:17:07.764Z,20.00
2018-05-10T18:19:34.396Z,19.90
2018-05-10T18:22:01.048Z,20.00
2018-05-10T18:24:28.442Z,20.00
2018-05-10T18:26:55.080Z,19.90
2018-05-10T18:29:22.109Z,19.90
2018-05-10T18:31:48.740Z,19.90
2018-05-10T18:34:16.201Z,19.90
2018-05-10T18:36:42.825Z,19.90
2018-05-10T18:39:09.680Z,19.90
2018-05-10T18:41:36.723Z,19.90
2018-05-10T18:44:03.788Z,19.90
2018-05-10T18:46:30.496Z,19.90
2018-05-10T18:48:57.929Z,19.90
2018-05-10T18:51:24.548Z,19.90
2018-05-10T18:53:51.976Z,19.90
2018-05-10T18:56:18.640Z,19.90
2018-05-10T18:58:45.279Z,19.90
2018-05-10T19:01:11.912Z,19.90
2018-05-10T19:03:39.736Z,19.90
2018-05-10T19:06:07.240Z,19.90
2018-05-10T19:08:34.282Z,19.90
2018-05-10T19:11:00.916Z,19.90
2018-05-10T19:13:27.582Z,19.90
2018-05-10T19:15:54.973Z,19.90
2018-05-10T19:18:26.586Z,19.80
2018-05-10T19:20:53.615Z,19.80
2018-05-10T19:23:21.100Z,19.80
2018-05-10T19:25:48.490Z,19.80
2018-05-10T19:28:15.520Z,19.80
2018-05-10T19:30:42.636Z,19.80
2018-05-10T19:33:09.264Z,19.80
2018-05-10T19:35:35.892Z,19.80
2018-05-10T19:38:02.571Z,19.80
2018-05-10T19:40:29.284Z,19.80
2018-05-10T19:42:56.368Z,19.80
2018-05-10T19:45:23.188Z,19.80
2018-05-10T19:47:49.894Z,19.80
2018-05-10T19:50:17.313Z,19.80
2018-05-10T19:52:43.944Z,19.80
2018-05-10T19:55:10.588Z,19.80
2018-05-10T19:57:37.635Z,19.80
2018-05-10T20:00:05.088Z,19.80
2018-05-10T20:02:31.727Z,19.80
2018-05-10T20:04:59.183Z,19.80
2018-05-10T20:07:25.809Z,19.80
2018-05-10T20:09:52.465Z,19.80
2018-05-10T20:12:19.129Z,19.80
2018-05-10T20:14:46.556Z,19.80
2018-05-10T20:17:13.214Z,19.80
2018-05-10T20:19:39.858Z,19.80
2018-05-10T20:22:06.900Z,19.80
2018-05-10T20:24:33.587Z,19.80
2018-05-10T20:27:00.628Z,19.70
2018-05-10T20:29:27.655Z,19.70
2018-05-10T20:31:55.084Z,19.70
2018-05-10T20:34:22.500Z,19.70
2018-05-10T20:36:49.565Z,19.70
2018-05-10T20:39:16.204Z,19.70
2018-05-10T20:41:43.280Z,19.70
2018-05-10T20:44:10.297Z,19.70
2018-05-10T20:46:36.936Z,19.70
2018-05-10T20:49:03.566Z,19.70
2018-05-10T20:51:33.086Z,19.70
2018-05-10T20:54:00.104Z,19.70
2018-05-10T20:56:27.169Z,19.70
2018-05-10T20:58:53.800Z,19.70
2018-05-10T21:01:20.824Z,19.70
2018-05-10T21:03:47.532Z,19.70
2018-05-10T21:06:14.151Z,19.70
2018-05-10T21:08:40.790Z,19.70
2018-05-10T21:11:07.429Z,19.70
2018-05-10T21:13:34.072Z,19.70
2018-05-10T21:16:00.704Z,19.70
2018-05-10T21:18:27.348Z,19.70
2018-05-10T21:20:54.034Z,19.70
2018-05-10T21:23:20.780Z,19.70
2018-05-10T21:25:47.818Z,19.70
2018-05-10T21:28:14.881Z,19.70
2018-05-10T21:30:41.748Z,19.60
2018-05-10T21:33:08.427Z,19.60
2018-05-10T21:35:35.035Z,19.60
2018-05-10T21:38:01.684Z,19.60
2018-05-10T21:40:28.705Z,19.60
2018-05-10T21:42:55.822Z,19.60
2018-05-10T21:45:22.801Z,19.60
2018-05-10T21:47:50.214Z,19.60
2018-05-10T21:50:16.866Z,19.60
2018-05-10T21:52:43.484Z,19.60
2018-05-10T21:55:10.183Z,19.60
2018-05-10T21:57:36.807Z,19.60
2018-05-10T22:00:03.456Z,19.60
2018-05-10T22:02:30.127Z,19.60
2018-05-10T22:04:56.765Z,19.60
2018-05-10T22:07:23.511Z,19.60
2018-05-10T22:09:50.572Z,19.60
2018-05-10T22:12:17.204Z,19.60
2018-05-10T22:14:43.852Z,19.60
2018-05-10T22:17:11.282Z,19.60
2018-05-10T22:19:38.347Z,19.60
2018-05-10T22:22:04.974Z,19.60
2018-05-10T22:24:32.351Z,19.50
2018-05-10T22:26:59.498Z,19.60
2018-05-10T22:29:26.152Z,19.50
2018-05-10T22:31:52.792Z,19.50
2018-05-10T22:34:20.609Z,19.50
2018-05-10T22:36:47.261Z,19.50
2018-05-10T22:39:13.880Z,19.50
2018-05-10T22:41:40.945Z,19.50
2018-05-10T22:44:07.573Z,19.50
2018-05-10T22:46:34.621Z,19.50
2018-05-10T22:49:01.284Z,19.50
2018-05-10T22:51:28.349Z,19.50
2018-05-10T22:53:54.976Z,19.50
2018-05-10T22:56:21.609Z,19.50
2018-05-10T22:58:48.228Z,19.50
2018-05-10T23:01:15.672Z,19.50
2018-05-10T23:06:20.892Z,19.50
2018-05-10T23:08:47.534Z,19.50
2018-05-10T23:11:14.273Z,19.50
2018-05-10T23:13:41.753Z,19.50
2018-05-10T23:16:08.410Z,19.50
2018-05-10T23:18:35.037Z,19.50
2018-05-10T23:21:02.519Z,19.50
2018-05-10T23:23:29.158Z,19.50
2018-05-10T23:25:55.794Z,19.50
2018-05-10T23:28:22.441Z,19.50
2018-05-10T23:30:49.074Z,19.50
2018-05-10T23:33:15.717Z,19.50
2018-05-10T23:35:43.168Z,19.50
2018-05-10T23:38:09.860Z,19.50
2018-05-10T23:40:36.600Z,19.50
2018-05-10T23:43:03.249Z,19.50
2018-05-10T23:45:30.697Z,19.50
2018-05-10T23:47:57.345Z,19.40
2018-05-10T23:50:24.021Z,19.50
2018-05-10T23:52:51.056Z,19.50
2018-05-10T23:55:18.467Z,19.50
2018-05-10T23:57:50.708Z,19.50
